Terminal Aerodrome Forecast
Issued by NWS

Home | Current Version | Previous Version | Text Only | Print | Product List | Glossary On
Versions: 1 2 3 4 5 6 7 8 9 10 11 12 13 14 15 16 17 18 19 20 21 22 23 24 25 26 27 28
000
FTUS43 KICT 260732 AAA
TAFHUT
TAF AMD
KHUT 260732Z 2608/2706 04007KT P6SM -RA SCT020 OVC100
      TEMPO 2608/2612 5SM TSRA BKN017CB
     FM261200 VRB04KT P6SM SCT020 BKN250
     FM261600 13009KT P6SM SCT030=

USA.gov is the U.S. government's official web portal to all federal, state and local government web resources and services.